首页
METAR-TAF:

METAR-TAF

机场 :

Rouyn-Noranda, 魁北克, 加拿大

纬度: 48-12N, 经度: 078-50W, 海拔: 301米

当前天气观测

该预报发布于29分钟前的18:34 UTC
风速5节,风向
温度 -8°C
湿度 85%
气压 1001 hPa
能見度: 1.2公里
阴天层高于2000英尺
小雪

METAR: CYUY 181834Z 08005KT 3/4SM -SN OVC020 M08/M10 A2955 RMK SN6SC2 PRESFR SLP032

时间: 14:03 (19:03 UTC)

预报

该预报发布于1小时和24分钟前的17:39 UTC
预报有效从18日的 18点(UTC)到 19日的 06点(UTC)
风速10节,风向东转东南,有时为20节阵风
能見度: 1.2公里
阴天层高于700英尺
小雪
短暂存在
从 18日的 18点(UTC)到 19日的 02点(UTC)
能見度: 3.2公里
少量云层高于700英尺
阴天层高于1200英尺
小雪
成为
从 18日的 20点(UTC)到 18日的 22点(UTC)
风速10节,风向西转西北,有时为20节阵风
从 19日的 0200点(UTC)
风速15节,风向西北,有时为25节阵风
能見度: 3.2公里
阴天层高于2000英尺
小雪

TAF: CYUY 181739Z 1818/1906 12010G20KT 3/4SM -SN OVC007 TEMPO 1818/1902 2SM -SN FEW007 OVC012 BECMG 1820/1822 30010G20KT FM190200 31015G25KT 2SM -SN OVC020 RMK NXT FCST BY 190000Z

超过4000个机场的气象观测和天气预报(METAR&TAF报告)。

可查询的气象台以黄色和红色小点在地图上表示。

将鼠标移到小点上方,可查看气象台名称。

然后点击查看天气观测和预报。

如需切换地图:点击带黑十字的绿色按钮放大地图;点击带横线的绿色按钮缩小地图;或者点击绿色箭头查看邻近地区的地图。


METAR-TAF: